DUB weather

Dublin Airport
Dublin, County Dublin, Ireland

Public forecast

Using degrees Celsius for public forecast. Weather courtesy of forecast.io.

Current aviation weather report (METAR) for Dublin Airport

Retrieved 2019/10/23 02:30 UTC (1 minute ago):

EIDW 230230Z 16005KT 120V180 9999 FEW017 SCT031 BKN036 11/08 Q1014 NOSIG

Aviation forecast (TAF) for Dublin Airport

Retrieved 2019-10-23 00:09 UTC (2 hours ago):

TAF EIDW 222300Z 2300/2324 21008KT 9999 FEW020 BKN040 BECMG 2302/2304 17010KT BECMG 2310/2312 19015KT TEMPO 2317/2323 5000 -RA BKN012 BECMG 2322/2324 24012KT